createdAt,value
2022-12-01T00:01:24.388Z,30.85
2022-12-01T00:03:51.467Z,30.67
2022-12-01T00:06:21.491Z,31.13
2022-12-01T00:09:12.981Z,32.37
2022-12-01T00:11:42.367Z,30.10
2022-12-01T00:14:09.445Z,31.83
2022-12-01T00:16:36.607Z,32.10
2022-12-01T00:19:03.751Z,30.60
2022-12-01T00:21:30.808Z,30.83
2022-12-01T00:23:58.359Z,28.30
2022-12-01T00:26:27.054Z,30.23
2022-12-01T00:28:57.400Z,30.50
2022-12-01T00:31:25.304Z,30.70
2022-12-01T00:33:52.848Z,30.47
2022-12-01T00:36:20.357Z,31.63
2022-12-01T00:38:47.991Z,32.23
2022-12-01T00:41:15.188Z,32.77
2022-12-01T00:43:42.382Z,31.00
2022-12-01T00:46:09.756Z,29.60
2022-12-01T00:48:37.299Z,31.00
2022-12-01T00:51:04.731Z,31.03
2022-12-01T00:53:32.469Z,32.07
2022-12-01T00:55:59.790Z,31.53
2022-12-01T00:58:26.823Z,30.97
2022-12-01T01:00:59.949Z,31.67
2022-12-01T01:03:28.802Z,32.23
2022-12-01T01:05:55.869Z,31.97
2022-12-01T01:08:22.941Z,31.10
2022-12-01T01:10:50.039Z,32.27
2022-12-01T01:13:18.957Z,32.17
2022-12-01T01:15:46.180Z,31.97
2022-12-01T01:18:13.300Z,30.70
2022-12-01T01:20:40.607Z,29.93
2022-12-01T01:23:07.699Z,30.87
2022-12-01T01:25:34.742Z,32.00
2022-12-01T01:28:01.984Z,29.80
2022-12-01T01:30:29.126Z,31.43
2022-12-01T01:32:56.198Z,33.33
2022-12-01T01:35:23.309Z,30.27
2022-12-01T01:37:50.998Z,31.33
2022-12-01T01:40:18.831Z,31.00
2022-12-01T01:42:46.110Z,30.43
2022-12-01T01:45:29.705Z,31.33
2022-12-01T01:48:00.047Z,30.97
2022-12-01T01:50:29.214Z,30.03
2022-12-01T01:53:02.985Z,32.03
2022-12-01T01:55:32.158Z,30.67
2022-12-01T01:58:00.085Z,29.97
2022-12-01T02:00:27.485Z,29.87
2022-12-01T02:02:57.234Z,32.30
2022-12-01T02:05:29.383Z,30.23
2022-12-01T02:07:58.689Z,30.33
2022-12-01T02:10:58.720Z,32.30
2022-12-01T02:13:43.329Z,31.37
2022-12-01T02:16:26.145Z,31.30
2022-12-01T02:19:14.183Z,30.47
2022-12-01T02:22:01.911Z,31.10
2022-12-01T02:25:01.789Z,32.20
2022-12-01T02:27:54.482Z,30.70
2022-12-01T02:30:45.097Z,30.90
2022-12-01T02:33:23.379Z,28.00
2022-12-01T02:36:17.808Z,32.20
2022-12-01T02:39:12.182Z,31.37
2022-12-01T02:41:52.640Z,30.97
2022-12-01T02:44:38.958Z,31.57
2022-12-01T02:49:49.639Z,30.85
2022-12-01T02:52:18.905Z,31.75
2022-12-01T02:54:48.785Z,30.50
2022-12-01T02:57:17.164Z,32.13
2022-12-01T02:59:51.256Z,30.57
2022-12-01T03:02:28.686Z,31.80
2022-12-01T03:05:05.384Z,32.13
2022-12-01T03:08:01.742Z,31.07
2022-12-01T03:10:47.213Z,30.50
2022-12-01T03:13:49.416Z,30.00
2022-12-01T03:16:33.725Z,29.00
2022-12-01T03:19:14.632Z,31.90
2022-12-01T03:22:11.611Z,31.03
2022-12-01T03:24:41.284Z,27.90
2022-12-01T03:27:11.503Z,30.90
2022-12-01T03:29:48.396Z,31.77
2022-12-01T03:32:23.735Z,32.13
2022-12-01T03:35:04.476Z,32.40
2022-12-01T03:37:45.801Z,31.40
2022-12-01T03:40:19.426Z,29.27
2022-12-01T03:42:59.468Z,30.23
2022-12-01T03:46:12.509Z,30.37
2022-12-01T03:48:41.475Z,29.20
2022-12-01T03:51:22.197Z,29.43
2022-12-01T03:54:27.448Z,29.37
2022-12-01T03:57:00.432Z,29.93
2022-12-01T03:59:30.001Z,32.07
2022-12-01T04:01:58.304Z,31.50
2022-12-01T04:04:25.393Z,29.77
2022-12-01T04:06:53.774Z,30.70
2022-12-01T04:09:20.798Z,30.33
2022-12-01T04:12:06.695Z,30.20
2022-12-01T04:14:33.786Z,29.42
2022-12-01T04:17:00.918Z,31.23
2022-12-01T04:19:27.991Z,29.07
2022-12-01T04:21:55.051Z,28.87
2022-12-01T04:24:22.103Z,28.33
2022-12-01T04:26:49.162Z,29.00
2022-12-01T04:29:16.341Z,29.40
2022-12-01T04:31:43.490Z,31.17
2022-12-01T04:34:11.175Z,32.33
2022-12-01T04:36:38.573Z,30.83
2022-12-01T04:39:05.846Z,29.97
2022-12-01T04:41:32.891Z,30.07
2022-12-01T04:43:59.962Z,30.83
2022-12-01T04:46:27.132Z,32.10
2022-12-01T04:48:54.210Z,31.10
2022-12-01T04:51:22.423Z,31.10
2022-12-01T04:53:50.704Z,33.33
2022-12-01T04:56:18.251Z,32.07
2022-12-01T04:58:45.484Z,30.53
2022-12-01T05:01:15.229Z,30.23
2022-12-01T05:03:46.493Z,30.20
2022-12-01T05:06:17.735Z,32.30
2022-12-01T05:08:44.843Z,31.77
2022-12-01T05:11:13.629Z,30.80
2022-12-01T05:13:43.828Z,33.83
2022-12-01T05:16:24.290Z,30.07
2022-12-01T05:19:14.786Z,29.37
2022-12-01T05:21:43.570Z,32.37
2022-12-01T05:24:12.722Z,32.97
2022-12-01T05:26:42.351Z,33.77
2022-12-01T05:29:10.157Z,31.03
2022-12-01T05:31:37.384Z,32.23
2022-12-01T05:34:04.539Z,31.17
2022-12-01T05:36:32.603Z,31.37
2022-12-01T05:38:59.693Z,32.00
2022-12-01T05:41:26.744Z,31.70
2022-12-01T05:43:53.765Z,31.03
2022-12-01T05:46:22.045Z,34.30
2022-12-01T05:48:49.226Z,32.10
2022-12-01T05:51:17.968Z,32.70
2022-12-01T05:53:45.367Z,32.47
2022-12-01T05:56:12.897Z,31.80
2022-12-01T05:58:39.988Z,31.63
2022-12-01T06:01:07.164Z,31.93
2022-12-01T06:03:34.331Z,31.30
2022-12-01T06:06:01.757Z,29.87
2022-12-01T06:08:28.861Z,33.23
2022-12-01T06:10:55.961Z,31.70
2022-12-01T06:13:23.217Z,33.10
2022-12-01T06:16:16.578Z,34.17
2022-12-01T06:18:43.704Z,35.97
2022-12-01T06:21:10.738Z,37.00
2022-12-01T06:23:38.622Z,38.07
2022-12-01T06:26:05.824Z,34.23
2022-12-01T06:28:32.939Z,32.47
2022-12-01T06:31:03.463Z,32.30
2022-12-01T06:33:31.978Z,31.47
2022-12-01T06:36:00.956Z,32.57
2022-12-01T06:38:33.048Z,34.93
2022-12-01T06:41:01.331Z,31.27
2022-12-01T06:43:28.814Z,32.13
2022-12-01T06:46:01.157Z,34.20
2022-12-01T06:48:30.955Z,31.23
2022-12-01T06:51:00.146Z,32.90
2022-12-01T06:53:28.657Z,31.93
2022-12-01T06:56:02.046Z,31.50
2022-12-01T06:58:29.548Z,33.83
2022-12-01T07:00:58.794Z,30.10
2022-12-01T07:03:26.498Z,32.60
2022-12-01T07:05:59.924Z,32.90
2022-12-01T07:08:28.917Z,32.93
2022-12-01T07:11:04.986Z,32.23
2022-12-01T07:13:33.931Z,30.87
2022-12-01T07:16:06.054Z,31.30
2022-12-01T07:18:34.781Z,33.50
2022-12-01T07:21:04.988Z,32.10
2022-12-01T07:23:32.195Z,31.77
2022-12-01T07:26:23.101Z,32.00
2022-12-01T07:28:50.172Z,33.93
2022-12-01T07:31:19.409Z,32.93
2022-12-01T07:33:49.242Z,31.13
2022-12-01T07:36:16.479Z,35.47
2022-12-01T07:38:43.650Z,32.73
2022-12-01T07:41:19.470Z,33.53
2022-12-01T07:46:23.163Z,31.53
2022-12-01T07:48:52.573Z,32.47
2022-12-01T07:51:21.405Z,31.93
2022-12-01T07:53:50.842Z,30.60
2022-12-01T07:56:19.530Z,30.50
2022-12-01T07:58:46.748Z,31.40
2022-12-01T08:01:17.731Z,32.93
2022-12-01T08:03:45.313Z,31.60
2022-12-01T08:06:13.047Z,32.20
2022-12-01T08:08:41.436Z,31.77
2022-12-01T08:11:13.679Z,31.03
2022-12-01T08:13:42.366Z,32.20
2022-12-01T08:16:13.087Z,31.43
2022-12-01T08:18:41.891Z,31.60
2022-12-01T08:21:15.232Z,33.77
2022-12-01T08:23:43.803Z,32.63
2022-12-01T08:26:19.303Z,33.70
2022-12-01T08:28:47.555Z,31.85
2022-12-01T08:31:32.981Z,32.23
2022-12-01T08:34:00.219Z,32.25
2022-12-01T08:36:27.382Z,32.07
2022-12-01T08:38:56.363Z,31.90
2022-12-01T08:41:24.699Z,32.30
2022-12-01T08:44:00.438Z,30.87
2022-12-01T08:46:34.252Z,32.90
2022-12-01T08:49:03.888Z,33.67
2022-12-01T08:51:31.412Z,31.83
2022-12-01T08:53:59.798Z,31.60
2022-12-01T08:56:35.220Z,31.87
2022-12-01T08:59:02.506Z,31.77
2022-12-01T09:01:29.702Z,32.10
2022-12-01T09:04:10.461Z,31.93
2022-12-01T09:06:42.722Z,32.43
2022-12-01T09:09:18.872Z,30.07
2022-12-01T09:11:47.422Z,32.80
2022-12-01T09:14:18.770Z,32.53
2022-12-01T09:16:49.750Z,32.97
2022-12-01T09:19:24.003Z,32.00
2022-12-01T09:21:52.482Z,30.38
2022-12-01T09:24:19.614Z,31.20
2022-12-01T09:26:46.738Z,30.80
2022-12-01T09:29:16.592Z,32.13
2022-12-01T09:31:43.809Z,31.15
2022-12-01T09:34:19.865Z,31.23
2022-12-01T09:36:48.064Z,31.73
2022-12-01T09:39:21.126Z,32.40
2022-12-01T09:42:07.629Z,32.60
2022-12-01T09:44:51.611Z,33.90
2022-12-01T09:47:22.031Z,31.40
2022-12-01T09:50:07.316Z,31.60
2022-12-01T09:52:47.933Z,30.83
2022-12-01T09:55:23.417Z,32.23
2022-12-01T09:57:57.500Z,31.67
2022-12-01T10:00:31.293Z,31.90
2022-12-01T10:03:48.409Z,32.43
2022-12-01T10:06:37.831Z,31.10
2022-12-01T10:09:22.798Z,30.03
2022-12-01T10:11:55.271Z,31.20
2022-12-01T10:14:22.536Z,30.30
2022-12-01T10:17:18.210Z,30.37
2022-12-01T10:19:50.881Z,30.73
2022-12-01T10:22:57.258Z,28.75
2022-12-01T10:25:31.637Z,30.43
2022-12-01T10:28:36.277Z,30.50
2022-12-01T10:31:51.297Z,29.88
2022-12-01T10:34:23.840Z,29.93
2022-12-01T10:36:51.302Z,30.03
2022-12-01T10:39:35.195Z,30.53
2022-12-01T10:42:14.912Z,30.65
2022-12-01T10:44:43.237Z,30.23
2022-12-01T10:47:23.616Z,29.90
2022-12-01T10:49:51.058Z,29.07
2022-12-01T10:52:38.956Z,29.60
2022-12-01T10:55:29.381Z,32.00
2022-12-01T10:58:03.434Z,28.73
2022-12-01T11:00:59.002Z,31.20
2022-12-01T11:03:33.880Z,28.80
2022-12-01T11:06:05.388Z,30.13
2022-12-01T11:08:40.459Z,30.17
2022-12-01T11:11:30.321Z,30.48
2022-12-01T11:14:01.713Z,29.33
2022-12-01T11:16:44.725Z,31.63
2022-12-01T11:19:23.473Z,30.42
2022-12-01T11:22:26.239Z,29.83
2022-12-01T11:24:53.247Z,30.77
2022-12-01T11:27:23.322Z,31.67
2022-12-01T11:29:55.961Z,28.23
2022-12-01T11:32:30.280Z,29.08
2022-12-01T11:35:09.473Z,29.35
2022-12-01T11:37:50.473Z,28.73
2022-12-01T11:40:36.151Z,30.10
2022-12-01T11:45:40.512Z,27.33
2022-12-01T11:48:15.372Z,27.13
2022-12-01T11:50:59.563Z,29.73
2022-12-01T11:53:37.491Z,27.60
2022-12-01T11:56:37.167Z,26.30
2022-12-01T11:59:21.773Z,28.33
2022-12-01T12:02:46.401Z,27.17
2022-12-01T12:05:22.637Z,29.15
2022-12-01T12:08:15.752Z,28.17
2022-12-01T12:11:17.826Z,28.42
2022-12-01T12:14:18.011Z,29.25
2022-12-01T12:17:18.603Z,27.75
2022-12-01T12:20:11.300Z,28.20
2022-12-01T12:23:13.195Z,27.50
2022-12-01T12:26:24.642Z,28.00
2022-12-01T12:28:51.558Z,28.40
2022-12-01T12:32:03.032Z,26.73
2022-12-01T12:34:59.939Z,27.75
2022-12-01T12:37:38.745Z,28.35
2022-12-01T12:40:20.709Z,25.13
2022-12-01T12:43:19.934Z,24.73
2022-12-01T12:46:16.806Z,26.13
2022-12-01T12:49:26.021Z,25.17
2022-12-01T12:52:12.462Z,25.45
2022-12-01T12:54:50.446Z,25.25
2022-12-01T12:57:44.510Z,26.05
2022-12-01T13:00:20.812Z,25.38
2022-12-01T13:03:10.121Z,24.08
2022-12-01T13:06:04.555Z,26.52
2022-12-01T13:08:48.360Z,26.42
2022-12-01T13:11:29.652Z,24.65
2022-12-01T13:14:15.336Z,24.30
2022-12-01T13:16:48.138Z,24.63
2022-12-01T13:19:33.670Z,24.52
2022-12-01T13:22:02.264Z,25.05
2022-12-01T13:24:31.302Z,25.20
2022-12-01T13:27:11.113Z,25.30
2022-12-01T13:29:53.297Z,23.63
2022-12-01T13:32:30.934Z,24.92
2022-12-01T13:34:59.539Z,25.65
2022-12-01T13:37:35.752Z,24.92
2022-12-01T13:40:28.058Z,23.88
2022-12-01T13:43:10.472Z,24.00
2022-12-01T13:45:40.325Z,22.23
2022-12-01T13:48:37.890Z,22.23
2022-12-01T13:51:05.208Z,23.17
2022-12-01T13:53:37.833Z,23.75
2022-12-01T13:56:16.616Z,23.58
2022-12-01T13:58:53.991Z,23.02
2022-12-01T14:01:21.474Z,23.02
2022-12-01T14:04:12.748Z,24.08
2022-12-01T14:07:10.404Z,25.30
2022-12-01T14:09:41.009Z,21.95
2022-12-01T14:12:11.217Z,22.80
2022-12-01T14:14:44.858Z,24.13
2022-12-01T14:17:34.950Z,23.05
2022-12-01T14:20:22.308Z,22.70
2022-12-01T14:23:24.189Z,24.38
2022-12-01T14:26:20.882Z,22.45
2022-12-01T14:31:33.221Z,21.40
2022-12-01T14:34:06.440Z,23.38
2022-12-01T14:37:06.638Z,23.55
2022-12-01T14:39:38.648Z,24.40
2022-12-01T14:42:11.629Z,23.38
2022-12-01T14:44:55.077Z,23.02
2022-12-01T14:47:42.258Z,21.88
2022-12-01T14:50:23.147Z,23.70
2022-12-01T14:52:58.285Z,23.13
2022-12-01T14:55:41.735Z,23.38
2022-12-01T14:58:23.659Z,23.35
2022-12-01T15:01:12.594Z,22.85
2022-12-01T15:03:51.832Z,23.45
2022-12-01T15:06:27.616Z,23.90
2022-12-01T15:09:35.481Z,23.38
2022-12-01T15:12:09.158Z,22.90
2022-12-01T15:14:49.033Z,25.67
2022-12-01T15:17:34.728Z,24.17
2022-12-01T15:20:01.911Z,24.50
2022-12-01T15:22:34.219Z,24.58
2022-12-01T15:25:14.468Z,24.97
2022-12-01T15:27:43.884Z,24.90
2022-12-01T15:30:18.886Z,25.67
2022-12-01T15:32:46.259Z,26.23
2022-12-01T15:35:22.717Z,24.77
2022-12-01T15:37:51.934Z,24.13
2022-12-01T15:41:06.119Z,24.30
2022-12-01T15:43:30.158Z,24.33
2022-12-01T15:46:11.402Z,25.13
2022-12-01T15:48:38.876Z,27.83
2022-12-01T15:51:12.106Z,26.83
2022-12-01T15:53:54.060Z,25.85
2022-12-01T15:56:38.066Z,27.60
2022-12-01T15:59:24.035Z,27.33
2022-12-01T16:01:51.454Z,25.85
2022-12-01T16:04:35.544Z,27.23
2022-12-01T16:07:10.706Z,26.57
2022-12-01T16:09:54.954Z,27.88
2022-12-01T16:12:33.228Z,25.98
2022-12-01T16:15:00.469Z,26.57
2022-12-01T16:17:40.955Z,26.90
2022-12-01T16:20:31.022Z,26.10
2022-12-01T16:23:15.591Z,27.60
2022-12-01T16:25:47.417Z,25.50
2022-12-01T16:28:37.782Z,28.43
2022-12-01T16:31:10.178Z,27.07
2022-12-01T16:33:40.011Z,26.30
2022-12-01T16:36:07.678Z,23.30
2022-12-01T16:38:34.836Z,24.93
2022-12-01T16:41:14.947Z,26.33
2022-12-01T16:43:59.180Z,24.95
2022-12-01T16:46:31.225Z,22.87
2022-12-01T16:48:58.628Z,25.03
2022-12-01T16:51:35.578Z,22.93
2022-12-01T16:54:13.647Z,25.17
2022-12-01T16:56:41.096Z,25.73
2022-12-01T16:59:08.492Z,25.30
2022-12-01T17:01:37.800Z,26.63
2022-12-01T17:04:07.776Z,26.67
2022-12-01T17:06:36.240Z,25.73
2022-12-01T17:09:03.762Z,24.73
2022-12-01T17:11:31.131Z,24.43
2022-12-01T17:13:58.496Z,24.23
2022-12-01T17:16:26.234Z,23.40
2022-12-01T17:18:56.206Z,25.40
2022-12-01T17:21:23.587Z,25.60
2022-12-01T17:23:51.455Z,25.07
2022-12-01T17:26:20.769Z,26.50
2022-12-01T17:28:51.632Z,25.67
2022-12-01T17:31:19.292Z,26.07
2022-12-01T17:33:47.126Z,27.63
2022-12-01T17:36:15.659Z,26.05
2022-12-01T17:38:46.830Z,23.77
2022-12-01T17:41:21.985Z,24.70
2022-12-01T17:43:49.303Z,24.20
2022-12-01T17:46:18.215Z,25.93
2022-12-01T17:48:47.374Z,25.30
2022-12-01T17:51:20.906Z,25.90
2022-12-01T17:53:50.074Z,25.17
2022-12-01T17:56:17.829Z,25.60
2022-12-01T17:58:45.460Z,23.47
2022-12-01T18:01:19.242Z,24.37
2022-12-01T18:03:48.721Z,25.33
2022-12-01T18:06:17.746Z,23.87
2022-12-01T18:08:45.389Z,25.50
2022-12-01T18:11:16.330Z,23.47
2022-12-01T18:13:50.086Z,22.83
2022-12-01T18:16:26.156Z,24.83
2022-12-01T18:18:55.369Z,25.50
2022-12-01T18:21:24.617Z,25.20
2022-12-01T18:23:56.509Z,25.27
2022-12-01T18:26:26.244Z,26.10
2022-12-01T18:29:00.615Z,26.00
2022-12-01T18:31:30.872Z,26.27
2022-12-01T18:34:03.162Z,25.00
2022-12-01T18:36:34.395Z,24.40
2022-12-01T18:39:04.286Z,26.43
2022-12-01T18:41:34.086Z,24.67
2022-12-01T18:44:01.775Z,25.97
2022-12-01T18:46:30.196Z,23.23
2022-12-01T18:49:03.427Z,25.10
2022-12-01T18:51:39.417Z,25.77
2022-12-01T18:54:11.272Z,24.90
2022-12-01T18:56:39.205Z,24.63
2022-12-01T18:59:10.954Z,25.27
2022-12-01T19:01:43.924Z,25.13
2022-12-01T19:04:13.007Z,24.93
2022-12-01T19:06:43.186Z,25.20
2022-12-01T19:09:14.471Z,26.20
2022-12-01T19:11:43.711Z,24.77
2022-12-01T19:14:18.384Z,23.60
2022-12-01T19:16:47.804Z,24.30
2022-12-01T19:19:16.460Z,24.57
2022-12-01T19:21:45.958Z,24.33
2022-12-01T19:24:15.151Z,24.87
2022-12-01T19:26:44.542Z,25.70
2022-12-01T19:29:13.524Z,23.90
2022-12-01T19:31:41.505Z,23.83
2022-12-01T19:34:10.662Z,24.03
2022-12-01T19:36:41.861Z,25.40
2022-12-01T19:39:11.915Z,22.53
2022-12-01T19:41:40.422Z,26.03
2022-12-01T19:44:10.864Z,25.27
2022-12-01T19:46:40.853Z,24.97
2022-12-01T19:49:10.687Z,26.10
2022-12-01T19:51:40.600Z,26.50
2022-12-01T19:54:20.206Z,25.80
2022-12-01T19:56:49.480Z,25.97
2022-12-01T19:59:17.585Z,24.90
2022-12-01T20:01:45.845Z,24.67
2022-12-01T20:04:15.452Z,26.47
2022-12-01T20:06:43.798Z,25.63
2022-12-01T20:09:11.717Z,25.73
2022-12-01T20:11:39.774Z,26.17
2022-12-01T20:14:11.324Z,24.70
2022-12-01T20:16:38.986Z,26.13
2022-12-01T20:19:07.757Z,25.90
2022-12-01T20:21:42.739Z,26.50
2022-12-01T20:24:20.455Z,26.10
2022-12-01T20:26:57.807Z,25.67
2022-12-01T20:29:29.834Z,25.73
2022-12-01T20:32:02.915Z,23.50
2022-12-01T20:34:36.698Z,25.80
2022-12-01T20:37:05.443Z,26.83
2022-12-01T20:39:35.762Z,25.80
2022-12-01T20:42:04.209Z,26.50
2022-12-01T20:44:32.539Z,26.57
2022-12-01T20:47:01.141Z,25.93
2022-12-01T20:49:29.604Z,26.13
2022-12-01T20:51:58.255Z,24.97
2022-12-01T20:54:28.303Z,24.57
2022-12-01T20:56:59.170Z,25.87
2022-12-01T20:59:27.710Z,25.23
2022-12-01T21:01:55.892Z,26.23
2022-12-01T21:04:23.548Z,26.30
2022-12-01T21:06:54.760Z,27.60
2022-12-01T21:09:22.385Z,25.70
2022-12-01T21:12:09.796Z,25.93
2022-12-01T21:14:37.587Z,26.57
2022-12-01T21:17:13.590Z,24.90
2022-12-01T21:20:27.488Z,24.93
2022-12-01T21:22:58.654Z,24.70
2022-12-01T21:25:26.488Z,25.43
2022-12-01T21:27:57.253Z,25.13
2022-12-01T21:30:26.471Z,25.60
2022-12-01T21:32:54.760Z,26.77
2022-12-01T21:35:24.951Z,26.73
2022-12-01T21:38:00.580Z,24.43
2022-12-01T21:40:28.840Z,24.95
2022-12-01T21:43:01.521Z,26.30
2022-12-01T21:45:34.693Z,26.50
2022-12-01T21:48:17.916Z,24.90
2022-12-01T21:50:50.872Z,26.03
2022-12-01T21:53:21.622Z,26.40
2022-12-01T21:55:49.394Z,23.97
2022-12-01T21:58:30.808Z,26.20
2022-12-01T22:00:59.556Z,24.77
2022-12-01T22:03:39.765Z,25.83
2022-12-01T22:09:02.776Z,24.90
2022-12-01T22:11:31.104Z,24.63
2022-12-01T22:14:17.325Z,26.70
2022-12-01T22:19:37.492Z,25.20
2022-12-01T22:22:26.239Z,25.67
2022-12-01T22:25:07.286Z,26.03
2022-12-01T22:27:43.335Z,26.30
2022-12-01T22:30:10.347Z,24.70
2022-12-01T22:32:44.345Z,25.27
2022-12-01T22:35:28.961Z,26.30
2022-12-01T22:38:05.929Z,25.60
2022-12-01T22:40:48.368Z,25.63
2022-12-01T22:43:15.879Z,27.27
2022-12-01T22:46:17.526Z,25.87
2022-12-01T22:49:10.450Z,28.03
2022-12-01T22:51:40.219Z,24.80
2022-12-01T22:54:10.068Z,26.00
2022-12-01T22:57:24.507Z,26.73
2022-12-01T22:59:52.068Z,25.20
2022-12-01T23:02:25.224Z,26.63
2022-12-01T23:05:00.566Z,25.93
2022-12-01T23:07:36.441Z,26.55
2022-12-01T23:10:39.037Z,25.57
2022-12-01T23:13:24.392Z,25.50
2022-12-01T23:15:55.894Z,25.17
2022-12-01T23:18:32.010Z,25.80
2022-12-01T23:21:02.627Z,26.50
2022-12-01T23:23:36.578Z,25.23
2022-12-01T23:26:08.487Z,25.80
2022-12-01T23:28:38.677Z,26.47
2022-12-01T23:31:06.062Z,25.37
2022-12-01T23:33:35.392Z,26.43
2022-12-01T23:36:27.727Z,26.00
2022-12-01T23:39:04.564Z,26.53
2022-12-01T23:41:39.023Z,25.80
2022-12-01T23:44:45.480Z,25.63
2022-12-01T23:47:22.711Z,25.63
2022-12-01T23:50:00.191Z,24.80
2022-12-01T23:52:35.167Z,26.13
2022-12-01T23:55:16.868Z,26.75
2022-12-01T23:57:44.010Z,26.00
